sensor_id;sensor_type;location;lat;lon;timestamp;P1;durP1;ratioP1;P2;durP2;ratioP2
27684;SDS011;46113;50.130;8.526;2022-09-27T04:16:27;0.70;;;0.20;;
27684;SDS011;46113;50.130;8.526;2022-09-27T04:19:21;0.13;;;0.13;;
27684;SDS011;46113;50.130;8.526;2022-09-27T04:22:08;0.73;;;0.20;;
27684;SDS011;46113;50.130;8.526;2022-09-27T04:24:35;3.20;;;0.30;;
27684;SDS011;46113;50.130;8.526;2022-09-27T04:27:20;0.20;;;0.20;;
27684;SDS011;46113;50.130;8.526;2022-09-27T04:29:49;0.20;;;0.20;;
27684;SDS011;46113;50.130;8.526;2022-09-27T04:32:48;0.15;;;0.15;;
27684;SDS011;46113;50.130;8.526;2022-09-27T04:35:38;1.05;;;0.10;;
27684;SDS011;46113;50.130;8.526;2022-09-27T04:38:23;0.43;;;0.43;;
27684;SDS011;46113;50.130;8.526;2022-09-27T04:40:50;2.28;;;0.30;;
27684;SDS011;46113;50.130;8.526;2022-09-27T04:43:17;0.20;;;0.20;;
27684;SDS011;46113;50.130;8.526;2022-09-27T04:45:43;1.20;;;0.43;;
27684;SDS011;46113;50.130;8.526;2022-09-27T04:48:11;1.45;;;0.40;;
27684;SDS011;46113;50.130;8.526;2022-09-27T04:50:38;1.58;;;0.30;;
27684;SDS011;46113;50.130;8.526;2022-09-27T04:53:05;0.60;;;0.10;;
27684;SDS011;46113;50.130;8.526;2022-09-27T04:55:32;0.10;;;0.10;;
27684;SDS011;46113;50.130;8.526;2022-09-27T04:57:59;0.20;;;0.20;;
27684;SDS011;46113;50.130;8.526;2022-09-27T05:00:28;0.10;;;0.10;;
27684;SDS011;46113;50.130;8.526;2022-09-27T05:03:02;0.15;;;0.15;;
27684;SDS011;46113;50.130;8.526;2022-09-27T05:05:40;0.65;;;0.20;;
27684;SDS011;46113;50.130;8.526;2022-09-27T05:08:07;0.10;;;0.10;;
27684;SDS011;46113;50.130;8.526;2022-09-27T05:10:54;0.13;;;0.13;;
27684;SDS011;46113;50.130;8.526;2022-09-27T05:13:28;0.20;;;0.20;;
27684;SDS011;46113;50.130;8.526;2022-09-27T05:18:50;4.18;;;0.10;;
27684;SDS011;46113;50.130;8.526;2022-09-27T05:21:37;4.80;;;0.40;;
27684;SDS011;46113;50.130;8.526;2022-09-27T05:24:04;0.80;;;0.13;;
27684;SDS011;46113;50.130;8.526;2022-09-27T05:29:57;0.60;;;0.20;;
27684;SDS011;46113;50.130;8.526;2022-09-27T05:32:46;0.10;;;0.10;;
27684;SDS011;46113;50.130;8.526;2022-09-27T05:35:24;0.15;;;0.15;;
27684;SDS011;46113;50.130;8.526;2022-09-27T05:38:03;0.15;;;0.15;;
27684;SDS011;46113;50.130;8.526;2022-09-27T05:40:33;2.45;;;0.30;;
27684;SDS011;46113;50.130;8.526;2022-09-27T05:43:14;0.40;;;0.13;;
27684;SDS011;46113;50.130;8.526;2022-09-27T05:45:43;1.13;;;0.10;;
27684;SDS011;46113;50.130;8.526;2022-09-27T05:48:22;2.70;;;0.30;;
27684;SDS011;46113;50.130;8.526;2022-09-27T06:04:12;2.78;;;0.30;;
27684;SDS011;46113;50.130;8.526;2022-09-27T06:21:20;0.40;;;0.30;;
27684;SDS011;46113;50.130;8.526;2022-09-27T06:23:54;1.40;;;0.47;;
27684;SDS011;46113;50.130;8.526;2022-09-27T06:26:33;1.75;;;0.43;;
27684;SDS011;46113;50.130;8.526;2022-09-27T06:29:26;0.30;;;0.30;;
27684;SDS011;46113;50.130;8.526;2022-09-27T06:32:04;0.85;;;0.30;;
27684;SDS011;46113;50.130;8.526;2022-09-27T06:37:55;0.32;;;0.32;;
27684;SDS011;46113;50.130;8.526;2022-09-27T06:40:24;0.30;;;0.30;;
27684;SDS011;46113;50.130;8.526;2022-09-27T06:43:11;0.98;;;0.38;;
27684;SDS011;46113;50.130;8.526;2022-09-27T06:46:06;4.03;;;0.40;;
27684;SDS011;46113;50.130;8.526;2022-09-27T06:48:59;0.20;;;0.20;;
27684;SDS011;46113;50.130;8.526;2022-09-27T06:51:26;0.38;;;0.13;;
27684;SDS011;46113;50.130;8.526;2022-09-27T06:53:52;1.15;;;0.30;;
27684;SDS011;46113;50.130;8.526;2022-09-27T06:59:54;0.65;;;0.10;;
27684;SDS011;46113;50.130;8.526;2022-09-27T07:03:00;0.43;;;0.38;;
27684;SDS011;46113;50.130;8.526;2022-09-27T07:05:35;0.30;;;0.30;;
27684;SDS011;46113;50.130;8.526;2022-09-27T07:10:55;0.70;;;0.40;;
27684;SDS011;46113;50.130;8.526;2022-09-27T07:13:28;0.25;;;0.25;;
27684;SDS011;46113;50.130;8.526;2022-09-27T07:16:00;4.47;;;0.40;;
27684;SDS011;46113;50.130;8.526;2022-09-27T07:18:32;0.10;;;0.10;;
27684;SDS011;46113;50.130;8.526;2022-09-27T07:21:05;0.43;;;0.20;;
27684;SDS011;46113;50.130;8.526;2022-09-27T07:24:12;0.15;;;0.15;;
27684;SDS011;46113;50.130;8.526;2022-09-27T07:29:56;0.43;;;0.20;;
27684;SDS011;46113;50.130;8.526;2022-09-27T07:32:28;1.25;;;0.17;;
27684;SDS011;46113;50.130;8.526;2022-09-27T07:38:13;0.10;;;0.10;;
27684;SDS011;46113;50.130;8.526;2022-09-27T07:40:49;0.10;;;0.10;;
27684;SDS011;46113;50.130;8.526;2022-09-27T07:43:19;0.90;;;0.10;;
27684;SDS011;46113;50.130;8.526;2022-09-27T07:45:54;0.10;;;0.10;;
27684;SDS011;46113;50.130;8.526;2022-09-27T07:49:00;0.05;;;0.05;;
27684;SDS011;46113;50.130;8.526;2022-09-27T07:51:55;6.10;;;0.13;;
27684;SDS011;46113;50.130;8.526;2022-09-27T07:54:48;0.75;;;0.20;;
27684;SDS011;46113;50.130;8.526;2022-09-27T08:00:50;0.10;;;0.10;;
27684;SDS011;46113;50.130;8.526;2022-09-27T08:03:24;3.70;;;0.35;;
27684;SDS011;46113;50.130;8.526;2022-09-27T08:06:00;5.05;;;0.28;;
27684;SDS011;46113;50.130;8.526;2022-09-27T08:08:30;1.25;;;0.40;;
27684;SDS011;46113;50.130;8.526;2022-09-27T08:10:58;1.58;;;0.20;;
27684;SDS011;46113;50.130;8.526;2022-09-27T08:13:25;2.55;;;0.28;;
27684;SDS011;46113;50.130;8.526;2022-09-27T08:15:52;0.20;;;0.10;;
27684;SDS011;46113;50.130;8.526;2022-09-27T08:18:24;0.10;;;0.10;;
27684;SDS011;46113;50.130;8.526;2022-09-27T08:24:13;0.85;;;0.13;;
27684;SDS011;46113;50.130;8.526;2022-09-27T08:27:10;1.85;;;0.20;;
27684;SDS011;46113;50.130;8.526;2022-09-27T08:29:52;1.58;;;1.00;;
27684;SDS011;46113;50.130;8.526;2022-09-27T08:32:36;0.77;;;0.30;;
27684;SDS011;46113;50.130;8.526;2022-09-27T08:39:10;0.28;;;0.08;;
27684;SDS011;46113;50.130;8.526;2022-09-27T08:41:48;1.70;;;0.10;;
27684;SDS011;46113;50.130;8.526;2022-09-27T08:47:11;2.17;;;0.20;;
27684;SDS011;46113;50.130;8.526;2022-09-27T08:49:48;2.20;;;0.20;;
27684;SDS011;46113;50.130;8.526;2022-09-27T08:52:22;0.10;;;0.10;;
27684;SDS011;46113;50.130;8.526;2022-09-27T08:55:00;3.35;;;0.10;;
27684;SDS011;46113;50.130;8.526;2022-09-27T08:57:34;0.65;;;0.40;;
27684;SDS011;46113;50.130;8.526;2022-09-27T09:00:05;1.05;;;0.20;;
27684;SDS011;46113;50.130;8.526;2022-09-27T09:02:55;1.95;;;0.30;;
27684;SDS011;46113;50.130;8.526;2022-09-27T09:05:33;1.23;;;0.20;;
27684;SDS011;46113;50.130;8.526;2022-09-27T09:08:17;0.85;;;0.30;;
27684;SDS011;46113;50.130;8.526;2022-09-27T09:17:19;0.20;;;0.10;;
27684;SDS011;46113;50.130;8.526;2022-09-27T09:20:21;0.63;;;0.32;;
27684;SDS011;46113;50.130;8.526;2022-09-27T09:23:07;0.50;;;0.15;;
27684;SDS011;46113;50.130;8.526;2022-09-27T09:44:32;0.25;;;0.10;;
27684;SDS011;46113;50.130;8.526;2022-09-27T09:47:12;0.10;;;0.10;;
27684;SDS011;46113;50.130;8.526;2022-09-27T09:49:47;0.80;;;0.22;;
27684;SDS011;46113;50.130;8.526;2022-09-27T09:52:22;0.85;;;0.30;;
27684;SDS011;46113;50.130;8.526;2022-09-27T09:55:01;0.28;;;0.13;;
27684;SDS011;46113;50.130;8.526;2022-09-27T10:00:31;0.70;;;0.15;;
27684;SDS011;46113;50.130;8.526;2022-09-27T10:03:00;1.67;;;0.20;;
27684;SDS011;46113;50.130;8.526;2022-09-27T10:05:29;0.10;;;0.10;;
27684;SDS011;46113;50.130;8.526;2022-09-27T10:08:04;1.75;;;0.20;;
27684;SDS011;46113;50.130;8.526;2022-09-27T10:10:37;0.43;;;0.20;;
27684;SDS011;46113;50.130;8.526;2022-09-27T10:13:25;0.10;;;0.10;;
27684;SDS011;46113;50.130;8.526;2022-09-27T10:18:34;0.88;;;0.03;;
27684;SDS011;46113;50.130;8.526;2022-09-27T10:21:06;0.28;;;0.20;;
27684;SDS011;46113;50.130;8.526;2022-09-27T10:24:00;0.20;;;0.00;;
27684;SDS011;46113;50.130;8.526;2022-09-27T10:26:52;1.52;;;0.20;;
27684;SDS011;46113;50.130;8.526;2022-09-27T10:29:41;0.52;;;0.20;;
27684;SDS011;46113;50.130;8.526;2022-09-27T10:32:22;1.08;;;0.10;;
27684;SDS011;46113;50.130;8.526;2022-09-27T10:40:44;1.40;;;0.22;;
27684;SDS011;46113;50.130;8.526;2022-09-27T10:46:11;1.38;;;0.05;;
27684;SDS011;46113;50.130;8.526;2022-09-27T10:48:42;5.45;;;0.22;;
27684;SDS011;46113;50.130;8.526;2022-09-27T10:51:27;1.42;;;0.10;;
27684;SDS011;46113;50.130;8.526;2022-09-27T10:53:57;0.30;;;0.20;;
27684;SDS011;46113;50.130;8.526;2022-09-27T10:56:32;1.67;;;0.30;;
27684;SDS011;46113;50.130;8.526;2022-09-27T10:59:05;0.25;;;0.20;;
27684;SDS011;46113;50.130;8.526;2022-09-27T11:01:40;0.10;;;0.10;;
27684;SDS011;46113;50.130;8.526;2022-09-27T11:04:32;0.93;;;0.10;;
27684;SDS011;46113;50.130;8.526;2022-09-27T11:21:19;0.25;;;0.13;;
27684;SDS011;46113;50.130;8.526;2022-09-27T11:24:04;0.20;;;0.10;;
27684;SDS011;46113;50.130;8.526;2022-09-27T11:26:45;2.05;;;0.15;;
27684;SDS011;46113;50.130;8.526;2022-09-27T11:44:25;0.70;;;0.43;;
27684;SDS011;46113;50.130;8.526;2022-09-27T11:47:15;0.63;;;0.20;;
27684;SDS011;46113;50.130;8.526;2022-09-27T12:02:02;0.22;;;0.10;;
27684;SDS011;46113;50.130;8.526;2022-09-27T12:05:00;0.32;;;0.20;;
27684;SDS011;46113;50.130;8.526;2022-09-27T12:10:50;0.30;;;0.20;;
27684;SDS011;46113;50.130;8.526;2022-09-27T12:13:33;1.10;;;0.22;;
27684;SDS011;46113;50.130;8.526;2022-09-27T12:16:21;0.47;;;0.20;;
27684;SDS011;46113;50.130;8.526;2022-09-27T12:18:50;1.48;;;0.20;;
27684;SDS011;46113;50.130;8.526;2022-09-27T12:24:20;0.45;;;0.20;;
27684;SDS011;46113;50.130;8.526;2022-09-27T12:27:11;0.65;;;0.20;;
27684;SDS011;46113;50.130;8.526;2022-09-27T12:29:42;2.83;;;0.40;;
27684;SDS011;46113;50.130;8.526;2022-09-27T12:40:25;0.68;;;0.22;;
27684;SDS011;46113;50.130;8.526;2022-09-27T12:43:12;1.58;;;0.38;;
27684;SDS011;46113;50.130;8.526;2022-09-27T12:51:14;0.85;;;0.30;;
27684;SDS011;46113;50.130;8.526;2022-09-27T12:54:21;0.82;;;0.40;;
27684;SDS011;46113;50.130;8.526;2022-09-27T13:00:24;1.73;;;0.40;;
27684;SDS011;46113;50.130;8.526;2022-09-27T13:14:50;5.13;;;0.50;;
27684;SDS011;46113;50.130;8.526;2022-09-27T13:26:02;2.47;;;0.22;;
27684;SDS011;46113;50.130;8.526;2022-09-27T13:29:01;0.47;;;0.40;;
27684;SDS011;46113;50.130;8.526;2022-09-27T13:34:39;1.92;;;0.30;;
27684;SDS011;46113;50.130;8.526;2022-09-27T13:46:13;1.30;;;0.40;;
27684;SDS011;46113;50.130;8.526;2022-09-27T13:52:27;1.23;;;0.32;;
27684;SDS011;46113;50.130;8.526;2022-09-27T14:01:48;0.60;;;0.60;;
27684;SDS011;46113;50.130;8.526;2022-09-27T14:04:27;1.55;;;0.30;;
27684;SDS011;46113;50.130;8.526;2022-09-27T14:12:21;0.30;;;0.30;;
27684;SDS011;46113;50.130;8.526;2022-09-27T14:14:53;2.63;;;0.37;;
27684;SDS011;46113;50.130;8.526;2022-09-27T14:17:22;2.30;;;0.30;;
27684;SDS011;46113;50.130;8.526;2022-09-27T14:19:54;5.30;;;0.40;;
27684;SDS011;46113;50.130;8.526;2022-09-27T14:22:22;0.98;;;0.50;;
27684;SDS011;46113;50.130;8.526;2022-09-27T14:24:55;0.38;;;0.35;;
27684;SDS011;46113;50.130;8.526;2022-09-27T14:27:28;1.27;;;0.40;;
27684;SDS011;46113;50.130;8.526;2022-09-27T14:30:19;0.57;;;0.40;;
27684;SDS011;46113;50.130;8.526;2022-09-27T14:32:53;1.80;;;0.30;;
27684;SDS011;46113;50.130;8.526;2022-09-27T14:35:45;0.82;;;0.47;;
27684;SDS011;46113;50.130;8.526;2022-09-27T14:38:40;0.77;;;0.47;;
27684;SDS011;46113;50.130;8.526;2022-09-27T14:41:34;1.30;;;0.30;;
27684;SDS011;46113;50.130;8.526;2022-09-27T14:44:02;0.22;;;0.20;;
27684;SDS011;46113;50.130;8.526;2022-09-27T14:46:30;0.50;;;0.50;;
27684;SDS011;46113;50.130;8.526;2022-09-27T14:49:44;1.60;;;0.22;;
27684;SDS011;46113;50.130;8.526;2022-09-27T14:51:55;1.50;;;0.50;;
27684;SDS011;46113;50.130;8.526;2022-09-27T14:54:26;0.73;;;0.57;;
27684;SDS011;46113;50.130;8.526;2022-09-27T14:56:55;1.83;;;0.40;;
27684;SDS011;46113;50.130;8.526;2022-09-27T14:59:27;0.40;;;0.30;;
27684;SDS011;46113;50.130;8.526;2022-09-27T15:02:00;1.63;;;0.30;;
27684;SDS011;46113;50.130;8.526;2022-09-27T15:04:30;0.40;;;0.20;;
27684;SDS011;46113;50.130;8.526;2022-09-27T15:06:59;0.50;;;0.40;;
27684;SDS011;46113;50.130;8.526;2022-09-27T15:09:27;1.55;;;0.30;;
27684;SDS011;46113;50.130;8.526;2022-09-27T15:11:58;2.10;;;0.30;;
27684;SDS011;46113;50.130;8.526;2022-09-27T15:14:27;0.40;;;0.20;;
27684;SDS011;46113;50.130;8.526;2022-09-27T15:27:47;0.65;;;0.43;;
27684;SDS011;46113;50.130;8.526;2022-09-27T15:30:18;2.67;;;0.45;;
27684;SDS011;46113;50.130;8.526;2022-09-27T15:32:50;0.25;;;0.25;;
27684;SDS011;46113;50.130;8.526;2022-09-27T15:35:21;0.28;;;0.28;;
27684;SDS011;46113;50.130;8.526;2022-09-27T15:37:50;1.15;;;0.52;;
27684;SDS011;46113;50.130;8.526;2022-09-27T15:42:54;1.75;;;0.47;;
27684;SDS011;46113;50.130;8.526;2022-09-27T15:45:30;0.60;;;0.40;;
27684;SDS011;46113;50.130;8.526;2022-09-27T15:48:07;1.13;;;0.63;;
27684;SDS011;46113;50.130;8.526;2022-09-27T15:50:38;3.42;;;0.40;;
27684;SDS011;46113;50.130;8.526;2022-09-27T15:53:07;1.95;;;0.57;;
27684;SDS011;46113;50.130;8.526;2022-09-27T15:55:38;2.67;;;1.15;;
27684;SDS011;46113;50.130;8.526;2022-09-27T15:58:10;1.10;;;0.50;;
27684;SDS011;46113;50.130;8.526;2022-09-27T16:00:55;2.38;;;1.13;;
27684;SDS011;46113;50.130;8.526;2022-09-27T16:03:30;1.73;;;0.80;;
27684;SDS011;46113;50.130;8.526;2022-09-27T16:05:58;0.57;;;0.30;;
27684;SDS011;46113;50.130;8.526;2022-09-27T16:08:26;0.52;;;0.30;;
27684;SDS011;46113;50.130;8.526;2022-09-27T16:10:54;0.43;;;0.25;;
27684;SDS011;46113;50.130;8.526;2022-09-27T16:13:22;0.35;;;0.22;;
27684;SDS011;46113;50.130;8.526;2022-09-27T16:15:56;0.73;;;0.50;;
27684;SDS011;46113;50.130;8.526;2022-09-27T16:18:23;0.75;;;0.30;;
27684;SDS011;46113;50.130;8.526;2022-09-27T16:20:57;0.40;;;0.30;;
27684;SDS011;46113;50.130;8.526;2022-09-27T16:23:24;0.55;;;0.43;;
27684;SDS011;46113;50.130;8.526;2022-09-27T16:25:51;2.13;;;0.50;;
27684;SDS011;46113;50.130;8.526;2022-09-27T16:28:18;1.90;;;1.20;;
27684;SDS011;46113;50.130;8.526;2022-09-27T16:30:44;0.50;;;0.50;;
27684;SDS011;46113;50.130;8.526;2022-09-27T16:33:11;0.73;;;0.57;;
27684;SDS011;46113;50.130;8.526;2022-09-27T16:36:38;1.17;;;0.60;;
27684;SDS011;46113;50.130;8.526;2022-09-27T16:38:50;0.60;;;0.55;;
27684;SDS011;46113;50.130;8.526;2022-09-27T16:41:29;0.40;;;0.40;;
27684;SDS011;46113;50.130;8.526;2022-09-27T16:43:58;0.88;;;0.35;;
27684;SDS011;46113;50.130;8.526;2022-09-27T16:46:30;0.82;;;0.52;;
27684;SDS011;46113;50.130;8.526;2022-09-27T16:49:00;1.40;;;0.52;;
27684;SDS011;46113;50.130;8.526;2022-09-27T16:51:27;2.35;;;0.57;;
27684;SDS011;46113;50.130;8.526;2022-09-27T16:54:13;0.50;;;0.50;;
27684;SDS011;46113;50.130;8.526;2022-09-27T16:56:41;1.98;;;1.23;;
27684;SDS011;46113;50.130;8.526;2022-09-27T16:59:07;0.45;;;0.40;;
27684;SDS011;46113;50.130;8.526;2022-09-27T17:01:34;3.33;;;1.60;;
27684;SDS011;46113;50.130;8.526;2022-09-27T17:04:01;1.23;;;0.65;;
27684;SDS011;46113;50.130;8.526;2022-09-27T17:06:29;2.05;;;1.27;;
27684;SDS011;46113;50.130;8.526;2022-09-27T17:09:01;3.13;;;2.33;;
27684;SDS011;46113;50.130;8.526;2022-09-27T17:11:31;0.73;;;0.50;;
27684;SDS011;46113;50.130;8.526;2022-09-27T17:13:58;1.50;;;1.13;;
27684;SDS011;46113;50.130;8.526;2022-09-27T17:16:25;1.05;;;0.50;;
27684;SDS011;46113;50.130;8.526;2022-09-27T17:18:56;2.95;;;0.70;;
27684;SDS011;46113;50.130;8.526;2022-09-27T17:21:29;3.53;;;2.30;;
27684;SDS011;46113;50.130;8.526;2022-09-27T17:24:03;1.88;;;0.60;;
27684;SDS011;46113;50.130;8.526;2022-09-27T17:26:31;0.55;;;0.40;;
27684;SDS011;46113;50.130;8.526;2022-09-27T17:29:00;0.60;;;0.22;;
27684;SDS011;46113;50.130;8.526;2022-09-27T17:31:32;2.67;;;0.70;;
27684;SDS011;46113;50.130;8.526;2022-09-27T17:34:02;0.73;;;0.43;;
27684;SDS011;46113;50.130;8.526;2022-09-27T17:36:30;2.17;;;0.75;;
27684;SDS011;46113;50.130;8.526;2022-09-27T17:42:38;0.85;;;0.70;;
27684;SDS011;46113;50.130;8.526;2022-09-27T17:45:05;1.95;;;0.52;;
27684;SDS011;46113;50.130;8.526;2022-09-27T17:47:32;1.98;;;0.95;;
27684;SDS011;46113;50.130;8.526;2022-09-27T17:50:17;1.00;;;0.80;;
27684;SDS011;46113;50.130;8.526;2022-09-27T17:52:54;0.60;;;0.50;;
27684;SDS011;46113;50.130;8.526;2022-09-27T17:55:22;0.52;;;0.50;;
27684;SDS011;46113;50.130;8.526;2022-09-27T17:57:50;1.05;;;0.60;;
27684;SDS011;46113;50.130;8.526;2022-09-27T18:00:17;0.73;;;0.70;;
27684;SDS011;46113;50.130;8.526;2022-09-27T18:02:44;0.88;;;0.80;;
27684;SDS011;46113;50.130;8.526;2022-09-27T18:05:11;1.13;;;1.02;;
27684;SDS011;46113;50.130;8.526;2022-09-27T18:07:37;1.77;;;1.13;;
27684;SDS011;46113;50.130;8.526;2022-09-27T18:10:04;0.88;;;0.80;;
27684;SDS011;46113;50.130;8.526;2022-09-27T18:12:31;1.95;;;1.00;;
27684;SDS011;46113;50.130;8.526;2022-09-27T18:14:58;0.90;;;0.80;;
27684;SDS011;46113;50.130;8.526;2022-09-27T18:17:24;2.22;;;1.20;;
27684;SDS011;46113;50.130;8.526;2022-09-27T18:19:53;1.67;;;0.90;;
27684;SDS011;46113;50.130;8.526;2022-09-27T18:22:22;2.33;;;0.70;;
27684;SDS011;46113;50.130;8.526;2022-09-27T18:24:51;1.15;;;0.82;;
27684;SDS011;46113;50.130;8.526;2022-09-27T18:27:18;0.75;;;0.75;;
27684;SDS011;46113;50.130;8.526;2022-09-27T18:29:45;0.60;;;0.57;;
27684;SDS011;46113;50.130;8.526;2022-09-27T18:32:12;1.10;;;0.80;;
27684;SDS011;46113;50.130;8.526;2022-09-27T18:37:31;0.63;;;0.40;;
27684;SDS011;46113;50.130;8.526;2022-09-27T18:39:57;1.95;;;0.77;;
27684;SDS011;46113;50.130;8.526;2022-09-27T18:42:25;0.73;;;0.60;;
27684;SDS011;46113;50.130;8.526;2022-09-27T18:45:05;2.13;;;1.00;;
27684;SDS011;46113;50.130;8.526;2022-09-27T18:48:18;0.73;;;0.50;;
27684;SDS011;46113;50.130;8.526;2022-09-27T18:50:45;0.93;;;0.80;;
27684;SDS011;46113;50.130;8.526;2022-09-27T18:53:14;1.75;;;0.50;;
27684;SDS011;46113;50.130;8.526;2022-09-27T18:55:41;1.95;;;0.47;;
27684;SDS011;46113;50.130;8.526;2022-09-27T18:58:08;2.55;;;0.60;;
27684;SDS011;46113;50.130;8.526;2022-09-27T19:00:39;0.98;;;0.60;;
27684;SDS011;46113;50.130;8.526;2022-09-27T19:03:06;1.42;;;0.63;;
27684;SDS011;46113;50.130;8.526;2022-09-27T19:05:32;1.20;;;0.85;;
27684;SDS011;46113;50.130;8.526;2022-09-27T19:08:01;1.55;;;0.75;;
27684;SDS011;46113;50.130;8.526;2022-09-27T19:12:59;1.95;;;0.88;;
27684;SDS011;46113;50.130;8.526;2022-09-27T19:15:26;0.63;;;0.63;;
27684;SDS011;46113;50.130;8.526;2022-09-27T19:17:53;0.93;;;0.70;;
27684;SDS011;46113;50.130;8.526;2022-09-27T19:20:19;1.33;;;0.73;;
27684;SDS011;46113;50.130;8.526;2022-09-27T19:22:46;4.43;;;0.65;;
27684;SDS011;46113;50.130;8.526;2022-09-27T19:25:52;2.22;;;0.80;;
27684;SDS011;46113;50.130;8.526;2022-09-27T19:28:19;1.63;;;0.63;;
27684;SDS011;46113;50.130;8.526;2022-09-27T19:30:47;1.40;;;0.73;;
27684;SDS011;46113;50.130;8.526;2022-09-27T19:33:13;3.17;;;0.70;;
27684;SDS011;46113;50.130;8.526;2022-09-27T19:35:40;2.55;;;0.85;;
27684;SDS011;46113;50.130;8.526;2022-09-27T19:38:06;1.08;;;0.70;;
27684;SDS011;46113;50.130;8.526;2022-09-27T19:40:33;4.00;;;1.02;;
27684;SDS011;46113;50.130;8.526;2022-09-27T19:42:59;0.95;;;0.85;;
27684;SDS011;46113;50.130;8.526;2022-09-27T19:45:26;2.85;;;1.25;;
27684;SDS011;46113;50.130;8.526;2022-09-27T19:47:52;1.80;;;1.00;;
27684;SDS011;46113;50.130;8.526;2022-09-27T19:50:22;2.25;;;1.45;;
27684;SDS011;46113;50.130;8.526;2022-09-27T19:52:49;1.70;;;1.10;;
27684;SDS011;46113;50.130;8.526;2022-09-27T19:55:15;2.80;;;1.40;;
27684;SDS011;46113;50.130;8.526;2022-09-27T19:57:42;2.60;;;1.10;;
27684;SDS011;46113;50.130;8.526;2022-09-27T20:00:08;7.82;;;1.60;;
27684;SDS011;46113;50.130;8.526;2022-09-27T20:02:35;1.73;;;1.17;;
27684;SDS011;46113;50.130;8.526;2022-09-27T20:05:02;1.58;;;1.20;;
27684;SDS011;46113;50.130;8.526;2022-09-27T20:07:28;3.03;;;1.60;;
27684;SDS011;46113;50.130;8.526;2022-09-27T20:09:55;2.30;;;1.20;;
27684;SDS011;46113;50.130;8.526;2022-09-27T20:12:22;3.17;;;1.58;;
27684;SDS011;46113;50.130;8.526;2022-09-27T20:14:48;1.73;;;1.08;;
27684;SDS011;46113;50.130;8.526;2022-09-27T20:17:15;2.03;;;1.00;;
27684;SDS011;46113;50.130;8.526;2022-09-27T20:19:42;1.33;;;0.90;;
27684;SDS011;46113;50.130;8.526;2022-09-27T20:22:08;2.00;;;0.85;;
27684;SDS011;46113;50.130;8.526;2022-09-27T20:24:34;1.13;;;0.95;;
27684;SDS011;46113;50.130;8.526;2022-09-27T20:27:01;2.58;;;0.98;;
27684;SDS011;46113;50.130;8.526;2022-09-27T20:29:27;1.38;;;0.80;;
27684;SDS011;46113;50.130;8.526;2022-09-27T20:31:56;2.58;;;1.35;;
27684;SDS011;46113;50.130;8.526;2022-09-27T20:34:42;3.72;;;1.05;;
27684;SDS011;46113;50.130;8.526;2022-09-27T20:37:09;3.05;;;1.05;;
27684;SDS011;46113;50.130;8.526;2022-09-27T20:39:35;1.85;;;0.93;;
27684;SDS011;46113;50.130;8.526;2022-09-27T20:42:02;4.43;;;1.60;;
27684;SDS011;46113;50.130;8.526;2022-09-27T20:44:28;7.47;;;1.40;;
27684;SDS011;46113;50.130;8.526;2022-09-27T20:46:56;1.92;;;0.90;;
27684;SDS011;46113;50.130;8.526;2022-09-27T20:49:23;1.73;;;1.38;;
27684;SDS011;46113;50.130;8.526;2022-09-27T20:51:50;1.58;;;1.05;;
27684;SDS011;46113;50.130;8.526;2022-09-27T20:54:17;2.92;;;1.00;;
27684;SDS011;46113;50.130;8.526;2022-09-27T20:56:44;1.30;;;1.00;;
27684;SDS011;46113;50.130;8.526;2022-09-27T20:59:16;2.42;;;1.40;;
27684;SDS011;46113;50.130;8.526;2022-09-27T21:01:47;7.45;;;2.42;;
27684;SDS011;46113;50.130;8.526;2022-09-27T21:04:17;1.60;;;1.50;;
27684;SDS011;46113;50.130;8.526;2022-09-27T21:09:45;1.95;;;1.73;;
27684;SDS011;46113;50.130;8.526;2022-09-27T21:12:12;1.40;;;1.25;;
27684;SDS011;46113;50.130;8.526;2022-09-27T21:14:38;2.38;;;1.60;;
27684;SDS011;46113;50.130;8.526;2022-09-27T21:17:06;6.68;;;1.58;;
27684;SDS011;46113;50.130;8.526;2022-09-27T21:19:33;3.38;;;1.73;;
27684;SDS011;46113;50.130;8.526;2022-09-27T21:22:00;5.28;;;1.52;;
27684;SDS011;46113;50.130;8.526;2022-09-27T21:24:26;3.30;;;1.30;;
27684;SDS011;46113;50.130;8.526;2022-09-27T21:26:53;2.22;;;1.40;;
27684;SDS011;46113;50.130;8.526;2022-09-27T21:29:19;1.45;;;1.17;;
27684;SDS011;46113;50.130;8.526;2022-09-27T21:31:46;1.23;;;0.95;;
27684;SDS011;46113;50.130;8.526;2022-09-27T21:34:12;1.10;;;1.00;;
27684;SDS011;46113;50.130;8.526;2022-09-27T21:36:39;2.58;;;1.35;;
27684;SDS011;46113;50.130;8.526;2022-09-27T21:39:06;2.63;;;1.73;;
27684;SDS011;46113;50.130;8.526;2022-09-27T21:41:34;2.38;;;1.38;;
27684;SDS011;46113;50.130;8.526;2022-09-27T21:44:01;1.00;;;0.93;;
27684;SDS011;46113;50.130;8.526;2022-09-27T21:46:29;1.63;;;1.38;;
27684;SDS011;46113;50.130;8.526;2022-09-27T21:48:56;2.20;;;1.10;;
27684;SDS011;46113;50.130;8.526;2022-09-27T21:51:28;2.00;;;1.00;;
27684;SDS011;46113;50.130;8.526;2022-09-27T21:57:03;3.38;;;1.42;;
27684;SDS011;46113;50.130;8.526;2022-09-27T21:59:30;2.58;;;1.50;;
